createdAt,value
2018-02-03T00:01:19.564Z,20.90
2018-02-03T00:03:45.790Z,17.80
2018-02-03T00:06:13.483Z,16.73
2018-02-03T00:08:39.666Z,18.60
2018-02-03T00:11:06.573Z,21.65
2018-02-03T00:13:32.736Z,16.62
2018-02-03T00:15:59.683Z,16.52
2018-02-03T00:18:25.871Z,15.05
2018-02-03T00:20:52.042Z,14.98
2018-02-03T00:23:18.231Z,16.27
2018-02-03T00:25:44.448Z,15.50
2018-02-03T00:28:10.655Z,10.77
2018-02-03T00:30:36.824Z,12.57
2018-02-03T00:33:03.000Z,13.00
2018-02-03T00:35:29.183Z,16.20
2018-02-03T00:37:56.084Z,18.87
2018-02-03T00:40:23.035Z,11.45
2018-02-03T00:42:49.207Z,17.00
2018-02-03T00:45:16.141Z,14.27
2018-02-03T00:47:43.063Z,12.50
2018-02-03T00:50:09.243Z,15.40
2018-02-03T00:52:35.446Z,15.30
2018-02-03T00:55:02.373Z,14.70
2018-02-03T00:57:28.580Z,10.55
2018-02-03T00:59:54.806Z,18.17
2018-02-03T01:02:21.010Z,17.00
2018-02-03T01:04:47.383Z,16.52
2018-02-03T01:07:13.572Z,16.25
2018-02-03T01:09:40.495Z,11.52
2018-02-03T01:12:06.688Z,14.32
2018-02-03T01:14:32.889Z,15.68
2018-02-03T01:16:59.839Z,13.50
2018-02-03T01:19:26.004Z,13.35
2018-02-03T01:21:52.198Z,13.45
2018-02-03T01:24:18.404Z,17.12
2018-02-03T01:26:44.585Z,16.33
2018-02-03T01:29:10.812Z,15.52
2018-02-03T01:31:36.996Z,28.55
2018-02-03T01:34:03.202Z,21.40
2018-02-03T01:36:30.132Z,16.67
2018-02-03T01:38:56.853Z,21.20
2018-02-03T01:41:23.044Z,15.38
2018-02-03T01:43:49.220Z,22.20
2018-02-03T01:46:15.392Z,16.55
2018-02-03T01:48:41.580Z,16.92
2018-02-03T01:51:07.769Z,23.33
2018-02-03T01:53:33.945Z,12.45
2018-02-03T01:56:00.120Z,19.25
2018-02-03T01:58:27.047Z,15.38
2018-02-03T02:00:53.204Z,14.47
2018-02-03T02:03:19.435Z,12.47
2018-02-03T02:05:45.872Z,16.90
2018-02-03T02:08:12.788Z,14.77
2018-02-03T02:10:38.951Z,13.07
2018-02-03T02:13:05.900Z,10.35
2018-02-03T02:15:32.122Z,20.95
2018-02-03T02:17:59.060Z,11.67
2018-02-03T02:20:25.244Z,10.88
2018-02-03T02:22:51.424Z,15.60
2018-02-03T02:25:17.601Z,18.48
2018-02-03T02:27:43.819Z,11.67
2018-02-03T02:30:09.988Z,14.93
2018-02-03T02:32:36.164Z,12.93
2018-02-03T02:35:02.372Z,11.48
2018-02-03T02:37:28.545Z,12.85
2018-02-03T02:39:54.730Z,10.33
2018-02-03T02:42:20.946Z,10.50
2018-02-03T02:44:47.855Z,19.60
2018-02-03T02:47:14.016Z,10.55
2018-02-03T02:49:40.950Z,10.13
2018-02-03T02:52:07.120Z,12.55
2018-02-03T02:54:33.327Z,12.15
2018-02-03T02:56:59.501Z,11.55
2018-02-03T02:59:25.665Z,14.00
2018-02-03T03:01:51.847Z,12.75
2018-02-03T03:04:18.088Z,13.35
2018-02-03T03:06:44.298Z,12.43
2018-02-03T03:09:10.469Z,13.65
2018-02-03T03:11:36.663Z,11.82
2018-02-03T03:14:03.651Z,13.27
2018-02-03T03:16:29.817Z,15.75
2018-02-03T03:18:56.011Z,15.52
2018-02-03T03:21:22.159Z,14.18
2018-02-03T03:23:48.344Z,11.35
2018-02-03T03:26:14.548Z,12.95
2018-02-03T03:28:40.720Z,13.73
2018-02-03T03:31:07.643Z,11.10
2018-02-03T03:33:33.828Z,14.85
2018-02-03T03:36:00.007Z,11.82
2018-02-03T03:38:26.220Z,13.10
2018-02-03T03:40:54.102Z,12.25
2018-02-03T03:43:20.267Z,13.77
2018-02-03T03:45:47.196Z,12.80
2018-02-03T03:48:13.395Z,13.27
2018-02-03T03:50:39.584Z,15.25
2018-02-03T03:53:06.504Z,17.48
2018-02-03T03:55:32.720Z,15.23
2018-02-03T03:57:58.907Z,17.35
2018-02-03T04:00:25.842Z,15.63
2018-02-03T04:02:53.560Z,15.30
2018-02-03T04:05:20.620Z,13.35
2018-02-03T04:07:47.024Z,13.70
2018-02-03T04:10:13.983Z,14.02
2018-02-03T04:12:40.157Z,20.30
2018-02-03T04:15:06.361Z,14.07
2018-02-03T04:17:32.592Z,15.02
2018-02-03T04:19:58.804Z,13.10
2018-02-03T04:22:25.747Z,16.77
2018-02-03T04:24:52.688Z,15.70
2018-02-03T04:27:19.638Z,16.90
2018-02-03T04:29:46.581Z,19.20
2018-02-03T04:32:12.824Z,15.38
2018-02-03T04:34:39.008Z,15.80
2018-02-03T04:37:05.180Z,15.93
2018-02-03T04:39:31.395Z,14.45
2018-02-03T04:41:57.565Z,16.40
2018-02-03T04:44:23.763Z,15.98
2018-02-03T04:46:49.960Z,14.85
2018-02-03T04:49:16.866Z,20.05
2018-02-03T04:51:43.063Z,21.23
2018-02-03T04:54:09.236Z,17.85
2018-02-03T04:56:35.439Z,19.70
2018-02-03T04:59:01.648Z,18.62
2018-02-03T05:01:27.859Z,19.10
2018-02-03T05:03:54.959Z,20.35
2018-02-03T05:06:21.373Z,20.85
2018-02-03T05:08:47.815Z,20.42
2018-02-03T05:11:14.730Z,19.07
2018-02-03T05:13:41.668Z,19.02
2018-02-03T05:16:07.906Z,16.95
2018-02-03T05:18:34.076Z,21.80
2018-02-03T05:21:00.270Z,23.70
2018-02-03T05:23:26.495Z,22.90
2018-02-03T05:25:52.687Z,20.92
2018-02-03T05:28:18.853Z,20.83
2018-02-03T05:30:45.106Z,26.00
2018-02-03T05:33:12.760Z,20.15
2018-02-03T05:35:38.946Z,22.70
2018-02-03T05:38:06.049Z,22.30
2018-02-03T05:40:32.260Z,24.65
2018-02-03T05:42:58.471Z,22.70
2018-02-03T05:45:25.669Z,21.55
2018-02-03T05:47:51.856Z,20.25
2018-02-03T05:50:18.806Z,26.23
2018-02-03T05:52:45.764Z,25.23
2018-02-03T05:55:12.687Z,26.77
2018-02-03T05:57:38.852Z,24.33
2018-02-03T06:00:05.769Z,25.30
2018-02-03T06:02:31.980Z,23.70
2018-02-03T06:04:58.151Z,18.02
2018-02-03T06:07:25.155Z,22.85
2018-02-03T06:09:51.532Z,28.48
2018-02-03T06:12:18.444Z,21.37
2018-02-03T06:14:44.620Z,21.62
2018-02-03T06:17:10.811Z,21.58
2018-02-03T06:19:37.060Z,19.65
2018-02-03T06:22:03.289Z,21.20
2018-02-03T06:24:29.512Z,23.40
2018-02-03T06:26:55.695Z,20.00
2018-02-03T06:29:22.615Z,22.27
2018-02-03T06:31:48.811Z,23.35
2018-02-03T06:34:15.005Z,21.85
2018-02-03T06:36:41.952Z,16.10
2018-02-03T06:39:08.896Z,22.08
2018-02-03T06:41:35.853Z,18.87
2018-02-03T06:44:02.806Z,20.12
2018-02-03T06:46:29.750Z,23.85
2018-02-03T06:48:55.919Z,20.62
2018-02-03T06:51:22.136Z,19.33
2018-02-03T06:53:49.050Z,18.00
2018-02-03T06:56:15.252Z,19.30
2018-02-03T06:58:41.415Z,17.73
2018-02-03T07:01:07.604Z,18.85
2018-02-03T07:03:33.763Z,20.85
2018-02-03T07:05:59.954Z,17.60
2018-02-03T07:08:26.267Z,18.75
2018-02-03T07:10:52.615Z,18.15
2018-02-03T07:13:18.792Z,19.12
2018-02-03T07:15:44.959Z,17.12
2018-02-03T07:18:11.144Z,16.02
2018-02-03T07:20:37.348Z,14.52
2018-02-03T07:23:03.524Z,17.98
2018-02-03T07:25:29.702Z,18.98
2018-02-03T07:27:55.920Z,12.90
2018-02-03T07:30:22.099Z,26.65
2018-02-03T07:32:49.016Z,16.80
2018-02-03T07:35:15.223Z,18.98
2018-02-03T07:37:41.396Z,19.27
2018-02-03T07:40:07.595Z,18.95
2018-02-03T07:42:33.816Z,22.08
2018-02-03T07:45:00.037Z,15.15
2018-02-03T07:47:26.218Z,18.10
2018-02-03T07:49:53.183Z,20.92
2018-02-03T07:52:20.128Z,18.98
2018-02-03T07:54:46.292Z,16.53
2018-02-03T07:57:13.247Z,30.17
2018-02-03T07:59:40.316Z,12.68
2018-02-03T08:02:06.520Z,20.57
2018-02-03T08:04:33.466Z,20.23
2018-02-03T08:06:59.642Z,17.23
2018-02-03T08:09:25.887Z,20.37
2018-02-03T08:11:52.270Z,18.05
2018-02-03T08:14:18.471Z,16.77
2018-02-03T08:16:44.631Z,17.73
2018-02-03T08:19:10.803Z,16.58
2018-02-03T08:21:36.970Z,19.50
2018-02-03T08:24:03.188Z,15.85
2018-02-03T08:26:29.424Z,18.30
2018-02-03T08:28:55.616Z,19.95
2018-02-03T08:31:21.776Z,23.27
2018-02-03T08:33:47.961Z,19.42
2018-02-03T08:36:14.159Z,17.27
2018-02-03T08:38:40.338Z,15.03
2018-02-03T08:41:07.292Z,19.58
2018-02-03T08:43:33.460Z,15.57
2018-02-03T08:45:59.637Z,16.50
2018-02-03T08:48:25.836Z,21.85
2018-02-03T08:50:52.003Z,16.93
2018-02-03T08:53:18.171Z,16.65
2018-02-03T08:55:45.088Z,26.27
2018-02-03T08:58:12.747Z,18.30
2018-02-03T09:00:38.954Z,14.23
2018-02-03T09:03:05.189Z,18.20
2018-02-03T09:05:32.176Z,19.27
2018-02-03T09:07:58.364Z,14.82
2018-02-03T09:10:24.823Z,15.30
2018-02-03T09:12:51.207Z,16.25
2018-02-03T09:15:18.136Z,22.15
2018-02-03T09:17:44.327Z,15.05
2018-02-03T09:20:10.507Z,14.95
2018-02-03T09:22:36.680Z,14.73
2018-02-03T09:25:03.612Z,16.23
2018-02-03T09:27:29.862Z,15.95
2018-02-03T09:29:56.779Z,14.30
2018-02-03T09:32:23.031Z,17.92
2018-02-03T09:34:49.979Z,21.10
2018-02-03T09:37:16.878Z,17.95
2018-02-03T09:39:43.125Z,18.55
2018-02-03T09:42:09.333Z,19.25
2018-02-03T09:44:35.538Z,14.35
2018-02-03T09:47:02.483Z,15.48
2018-02-03T09:49:29.406Z,13.60
2018-02-03T09:51:55.563Z,13.20
2018-02-03T09:54:22.539Z,15.95
2018-02-03T09:56:48.771Z,18.30
2018-02-03T09:59:14.963Z,13.98
2018-02-03T10:01:41.960Z,20.92
2018-02-03T10:04:08.168Z,20.17
2018-02-03T10:06:35.148Z,15.35
2018-02-03T10:09:01.333Z,14.50
2018-02-03T10:11:27.568Z,18.55
2018-02-03T10:13:53.924Z,13.38
2018-02-03T10:16:20.096Z,11.12
2018-02-03T10:18:46.291Z,11.57
2018-02-03T10:21:12.561Z,13.25
2018-02-03T10:23:39.488Z,16.10
2018-02-03T10:26:05.642Z,16.80
2018-02-03T10:28:32.780Z,18.85
2018-02-03T10:30:59.033Z,14.35
2018-02-03T10:33:25.276Z,20.25
2018-02-03T10:35:51.431Z,22.58
2018-02-03T10:38:17.660Z,23.10
2018-02-03T10:40:43.849Z,11.10
2018-02-03T10:43:10.016Z,13.40
2018-02-03T10:45:36.202Z,14.32
2018-02-03T10:48:02.388Z,15.20
2018-02-03T10:50:28.600Z,11.25
2018-02-03T10:52:55.544Z,11.98
2018-02-03T10:55:22.476Z,13.50
2018-02-03T10:57:48.636Z,12.10
2018-02-03T11:00:14.833Z,10.23
2018-02-03T11:02:41.027Z,9.48
2018-02-03T11:05:07.200Z,8.82
2018-02-03T11:07:33.428Z,8.73
2018-02-03T11:09:59.608Z,7.87
2018-02-03T11:12:25.877Z,9.47
2018-02-03T11:14:52.283Z,8.35
2018-02-03T11:17:19.194Z,9.80
2018-02-03T11:19:46.844Z,11.57
2018-02-03T11:22:13.027Z,12.75
2018-02-03T11:24:39.230Z,11.25
2018-02-03T11:27:06.192Z,15.30
2018-02-03T11:29:32.356Z,12.48
2018-02-03T11:31:58.556Z,8.95
2018-02-03T11:34:25.479Z,9.98
2018-02-03T11:36:51.660Z,10.15
2018-02-03T11:39:17.884Z,9.35
2018-02-03T11:41:44.796Z,7.20
2018-02-03T11:44:10.989Z,10.77
2018-02-03T11:46:37.188Z,8.20
2018-02-03T11:49:04.111Z,7.60
2018-02-03T11:51:30.327Z,7.47
2018-02-03T11:53:56.518Z,7.68
2018-02-03T11:56:23.464Z,6.20
2018-02-03T11:58:50.387Z,6.35
2018-02-03T12:01:16.579Z,6.40
2018-02-03T12:03:42.732Z,9.82
2018-02-03T12:06:08.932Z,11.80
2018-02-03T12:08:35.108Z,9.15
2018-02-03T12:11:01.295Z,6.75
2018-02-03T12:13:27.578Z,7.00
2018-02-03T12:15:54.664Z,7.32
2018-02-03T12:18:20.825Z,8.40
2018-02-03T12:20:47.768Z,6.75
2018-02-03T12:23:14.016Z,8.05
2018-02-03T12:25:40.187Z,8.00
2018-02-03T12:28:06.384Z,6.90
2018-02-03T12:30:32.568Z,7.40
2018-02-03T12:35:22.634Z,8.13
2018-02-03T12:37:48.756Z,7.68
2018-02-03T12:40:15.660Z,7.22
2018-02-03T12:42:41.895Z,8.57
2018-02-03T12:45:08.092Z,7.70
2018-02-03T12:47:34.313Z,8.18
2018-02-03T12:50:00.504Z,6.70
2018-02-03T12:52:26.675Z,7.90
2018-02-03T12:54:52.860Z,6.75
2018-02-03T12:57:19.168Z,13.77
2018-02-03T12:59:45.365Z,8.38
2018-02-03T13:02:12.272Z,6.78
2018-02-03T13:04:38.459Z,6.50
2018-02-03T13:07:04.627Z,5.07
2018-02-03T13:09:30.818Z,6.32
2018-02-03T13:11:57.749Z,6.80
2018-02-03T13:14:24.023Z,7.03
2018-02-03T13:16:51.129Z,6.45
2018-02-03T13:19:17.329Z,7.05
2018-02-03T13:21:43.528Z,6.72
2018-02-03T13:24:10.419Z,6.55
2018-02-03T13:26:36.596Z,8.50
2018-02-03T13:29:02.755Z,6.43
2018-02-03T13:31:28.919Z,8.15
2018-02-03T13:33:55.145Z,12.57
2018-02-03T13:36:21.303Z,7.70
2018-02-03T13:38:47.464Z,6.80
2018-02-03T13:41:13.687Z,6.15
2018-02-03T13:43:39.867Z,6.22
2018-02-03T13:46:06.069Z,7.20
2018-02-03T13:48:32.987Z,6.97
2018-02-03T13:50:59.166Z,7.80
2018-02-03T13:53:25.349Z,7.60
2018-02-03T13:55:51.541Z,6.78
2018-02-03T13:58:17.727Z,7.18
2018-02-03T14:00:43.904Z,6.53
2018-02-03T14:03:10.821Z,5.68
2018-02-03T14:05:37.035Z,7.07
2018-02-03T14:08:03.203Z,8.82
2018-02-03T14:10:30.127Z,9.00
2018-02-03T14:12:56.296Z,8.70
2018-02-03T14:15:23.280Z,8.25
2018-02-03T14:17:49.683Z,8.40
2018-02-03T14:20:16.597Z,8.00
2018-02-03T14:22:42.756Z,8.65
2018-02-03T14:25:09.679Z,17.48
2018-02-03T14:27:35.856Z,9.15
2018-02-03T14:30:02.780Z,7.82
2018-02-03T14:32:28.960Z,9.35
2018-02-03T14:34:55.135Z,9.95
2018-02-03T14:37:21.312Z,9.18
2018-02-03T14:39:48.228Z,9.60
2018-02-03T14:42:14.396Z,9.77
2018-02-03T14:44:40.591Z,8.25
2018-02-03T14:47:06.769Z,8.73
2018-02-03T14:49:32.927Z,8.00
2018-02-03T14:51:59.110Z,7.90
2018-02-03T14:54:26.047Z,8.75
2018-02-03T14:56:52.977Z,6.75
2018-02-03T14:59:19.164Z,5.53
2018-02-03T15:01:45.474Z,6.00
2018-02-03T15:04:11.695Z,11.20
2018-02-03T15:06:37.876Z,6.82
2018-02-03T15:09:04.052Z,14.07
2018-02-03T15:11:30.227Z,6.40
2018-02-03T15:13:57.156Z,6.93
2018-02-03T15:16:23.431Z,6.87
2018-02-03T15:18:49.635Z,7.32
2018-02-03T15:21:16.552Z,9.80
2018-02-03T15:23:42.780Z,5.53
2018-02-03T15:26:08.966Z,8.95
2018-02-03T15:28:35.868Z,8.25
2018-02-03T15:31:02.097Z,7.28
2018-02-03T15:33:28.262Z,10.82
2018-02-03T15:35:54.432Z,8.52
2018-02-03T15:38:20.627Z,9.13
2018-02-03T15:40:47.748Z,9.02
2018-02-03T15:43:13.931Z,9.70
2018-02-03T15:45:40.142Z,7.12
2018-02-03T15:48:06.331Z,11.02
2018-02-03T15:50:32.522Z,8.70
2018-02-03T15:52:58.684Z,10.65
2018-02-03T15:55:24.906Z,8.57
2018-02-03T15:57:51.820Z,12.73
2018-02-03T16:00:18.892Z,9.98
2018-02-03T16:02:45.826Z,10.27
2018-02-03T16:05:11.984Z,9.23
2018-02-03T16:07:38.942Z,8.00
2018-02-03T16:10:05.843Z,8.05
2018-02-03T16:12:32.016Z,7.80
2018-02-03T16:14:58.194Z,8.40
2018-02-03T16:17:24.427Z,8.48
2018-02-03T16:19:50.771Z,7.87
2018-02-03T16:22:16.956Z,8.00
2018-02-03T16:24:43.867Z,11.82
2018-02-03T16:27:10.059Z,7.87
2018-02-03T16:29:36.247Z,7.75
2018-02-03T16:32:02.431Z,7.22
2018-02-03T16:34:28.612Z,7.75
2018-02-03T16:36:54.808Z,6.97
2018-02-03T16:39:21.001Z,7.60
2018-02-03T16:41:47.914Z,7.97
2018-02-03T16:44:14.116Z,14.60
2018-02-03T16:46:40.330Z,8.90
2018-02-03T16:49:07.239Z,8.23
2018-02-03T16:51:33.400Z,7.85
2018-02-03T16:53:59.575Z,9.70
2018-02-03T16:56:38.093Z,9.20
2018-02-03T16:59:04.265Z,9.10
2018-02-03T17:01:30.432Z,8.27
2018-02-03T17:03:57.347Z,10.15
2018-02-03T17:06:23.504Z,7.50
2018-02-03T17:08:50.417Z,10.75
2018-02-03T17:11:16.608Z,12.15
2018-02-03T17:13:42.792Z,13.75
2018-02-03T17:16:08.995Z,7.90
2018-02-03T17:18:35.267Z,6.65
2018-02-03T17:21:01.704Z,9.48
2018-02-03T17:23:27.904Z,7.05
2018-02-03T17:25:54.108Z,9.60
2018-02-03T17:28:21.033Z,6.15
2018-02-03T17:30:47.203Z,6.05
2018-02-03T17:33:13.392Z,7.97
2018-02-03T17:35:39.552Z,7.53
2018-02-03T17:38:12.613Z,6.68
2018-02-03T17:40:38.795Z,6.53
2018-02-03T17:43:04.971Z,8.10
2018-02-03T17:45:37.423Z,7.47
2018-02-03T17:48:03.633Z,6.12
2018-02-03T17:50:30.580Z,8.75
2018-02-03T17:52:57.467Z,6.68
2018-02-03T17:55:29.995Z,10.10
2018-02-03T17:57:56.911Z,6.37
2018-02-03T18:00:23.067Z,6.12
2018-02-03T18:02:50.012Z,5.62
2018-02-03T18:05:16.161Z,5.95
2018-02-03T18:07:42.332Z,6.47
2018-02-03T18:10:08.506Z,6.72
2018-02-03T18:12:36.160Z,12.85
2018-02-03T18:15:03.067Z,6.20
2018-02-03T18:17:29.984Z,11.00
2018-02-03T18:19:57.061Z,12.02
2018-02-03T18:22:23.336Z,9.65
2018-02-03T18:24:49.534Z,6.72
2018-02-03T18:27:15.713Z,7.22
2018-02-03T18:29:41.892Z,8.05
2018-02-03T18:32:08.831Z,7.97
2018-02-03T18:34:35.009Z,7.03
2018-02-03T18:37:01.160Z,8.15
2018-02-03T18:39:27.331Z,7.40
2018-02-03T18:41:53.484Z,7.18
2018-02-03T18:44:20.384Z,8.43
2018-02-03T18:46:46.560Z,8.18
2018-02-03T18:49:13.464Z,12.48
2018-02-03T18:51:39.627Z,9.52
2018-02-03T18:54:05.803Z,9.00
2018-02-03T18:56:31.961Z,7.78
2018-02-03T18:58:58.099Z,7.78
2018-02-03T19:01:24.296Z,8.50
2018-02-03T19:03:50.456Z,12.93
2018-02-03T19:06:16.619Z,11.23
2018-02-03T19:08:42.808Z,13.55
2018-02-03T19:11:08.972Z,10.45
2018-02-03T19:13:35.118Z,10.80
2018-02-03T19:16:01.292Z,8.95
2018-02-03T19:18:27.460Z,9.73
2018-02-03T19:20:53.705Z,12.95
2018-02-03T19:23:19.899Z,12.50
2018-02-03T19:25:46.061Z,10.15
2018-02-03T19:28:12.307Z,12.25
2018-02-03T19:30:38.488Z,12.98
2018-02-03T19:33:04.643Z,17.98
2018-02-03T19:35:30.808Z,14.90
2018-02-03T19:37:57.012Z,15.63
2018-02-03T19:40:23.208Z,12.37
2018-02-03T19:42:50.103Z,13.98
2018-02-03T19:45:16.372Z,12.85
2018-02-03T19:47:42.589Z,16.50
2018-02-03T19:50:08.769Z,14.27
2018-02-03T19:52:35.693Z,14.63
2018-02-03T19:55:02.659Z,14.65
2018-02-03T19:57:29.563Z,15.95
2018-02-03T19:59:56.495Z,18.10
2018-02-03T20:02:23.426Z,16.02
2018-02-03T20:04:50.324Z,14.25
2018-02-03T20:07:16.484Z,16.50
2018-02-03T20:09:44.224Z,13.40
2018-02-03T20:12:10.543Z,14.95
2018-02-03T20:14:36.768Z,14.95
2018-02-03T20:17:02.976Z,18.23
2018-02-03T20:19:29.149Z,15.68
2018-02-03T20:21:55.395Z,19.83
2018-02-03T20:24:21.575Z,17.65
2018-02-03T20:26:47.759Z,22.73
2018-02-03T20:29:13.976Z,17.33
2018-02-03T20:31:40.143Z,18.65
2018-02-03T20:34:06.316Z,17.00
2018-02-03T20:36:33.218Z,18.37
2018-02-03T20:38:59.377Z,20.30
2018-02-03T20:41:25.535Z,16.45
2018-02-03T20:43:52.488Z,22.73
2018-02-03T20:46:18.643Z,18.92
2018-02-03T20:48:44.798Z,15.93
2018-02-03T20:51:10.992Z,19.35
2018-02-03T20:53:37.160Z,19.37
2018-02-03T20:56:03.387Z,19.95
2018-02-03T20:58:29.588Z,18.55
2018-02-03T21:00:55.757Z,17.67
2018-02-03T21:03:21.969Z,22.50
2018-02-03T21:05:48.186Z,19.98
2018-02-03T21:08:14.424Z,21.62
2018-02-03T21:10:40.600Z,18.60
2018-02-03T21:13:06.775Z,25.83
2018-02-03T21:15:33.667Z,20.23
2018-02-03T21:17:59.827Z,20.33
2018-02-03T21:20:26.022Z,19.65
2018-02-03T21:22:52.247Z,18.90
2018-02-03T21:25:18.592Z,17.48
2018-02-03T21:27:44.954Z,18.50
2018-02-03T21:30:11.116Z,20.85
2018-02-03T21:32:38.112Z,18.17
2018-02-03T21:35:04.299Z,18.08
2018-02-03T21:37:30.502Z,18.80
2018-02-03T21:39:56.680Z,18.25
2018-02-03T21:42:22.840Z,19.15
2018-02-03T21:44:49.008Z,17.10
2018-02-03T21:47:15.194Z,14.75
2018-02-03T21:49:41.429Z,20.85
2018-02-03T21:52:07.608Z,20.50
2018-02-03T21:54:33.775Z,16.92
2018-02-03T21:57:00.699Z,16.83
2018-02-03T21:59:26.880Z,15.68
2018-02-03T22:01:53.086Z,25.25
2018-02-03T22:04:19.278Z,17.73
2018-02-03T22:06:45.485Z,18.80
2018-02-03T22:09:11.711Z,17.17
2018-02-03T22:11:38.669Z,20.52
2018-02-03T22:14:04.856Z,19.77
2018-02-03T22:16:31.030Z,20.67
2018-02-03T22:18:57.960Z,20.75
2018-02-03T22:21:24.123Z,17.45
2018-02-03T22:23:50.364Z,14.02
2018-02-03T22:26:16.731Z,17.73
2018-02-03T22:28:43.695Z,21.02
2018-02-03T22:31:09.880Z,17.37
2018-02-03T22:33:36.792Z,17.52
2018-02-03T22:36:02.968Z,14.68
2018-02-03T22:38:29.148Z,15.63
2018-02-03T22:40:56.099Z,17.33
2018-02-03T22:43:22.247Z,17.20
2018-02-03T22:45:48.402Z,13.27
2018-02-03T22:48:14.636Z,15.23
2018-02-03T22:50:41.564Z,20.80
2018-02-03T22:53:08.504Z,16.87
2018-02-03T22:55:34.752Z,18.65
2018-02-03T22:58:00.947Z,15.40
2018-02-03T23:00:27.130Z,16.60
2018-02-03T23:02:57.967Z,16.58
2018-02-03T23:05:24.156Z,15.43
2018-02-03T23:07:50.360Z,16.33
2018-02-03T23:10:16.621Z,16.02
2018-02-03T23:12:42.793Z,18.77
2018-02-03T23:15:09.008Z,22.17
2018-02-03T23:17:35.250Z,19.12
2018-02-03T23:20:02.901Z,19.40
2018-02-03T23:22:29.076Z,13.77
2018-02-03T23:24:56.084Z,19.85
2018-02-03T23:27:22.512Z,14.70
2018-02-03T23:29:48.721Z,13.82
2018-02-03T23:32:14.880Z,14.18
2018-02-03T23:34:41.064Z,13.35
2018-02-03T23:37:08.003Z,13.73
2018-02-03T23:39:35.008Z,15.88
2018-02-03T23:42:01.180Z,15.23
2018-02-03T23:44:27.351Z,17.00
2018-02-03T23:46:54.281Z,14.75
2018-02-03T23:49:21.195Z,11.88
2018-02-03T23:51:47.383Z,13.05
2018-02-03T23:54:13.694Z,13.40
2018-02-03T23:56:40.648Z,13.30
2018-02-03T23:59:07.565Z,14.48
